Time;durP1;ratioP1;P1;durP2;ratioP2;P2;SDS_P1;SDS_P2;PMS_P1;PMS_P2;Temp;Humidity;BMP_temperature;BMP_pressure;BME280_temperature;BME280_humidity;BME280_pressure;Samples;Min_cycle;Max_cycle;Signal;HPM_P1;HPM_P2
2022/02/24 00:00:46;;;;;;;11.23;4.80;;;5.50;99.90;;;;;;5058825;28;20589;-70
2022/02/24 00:03:13;;;;;;;8.23;4.60;;;5.40;99.90;;;;;;5059607;28;20526;-70
2022/02/24 00:05:40;;;;;;;11.73;4.63;;;5.40;99.90;;;;;;5059160;28;20916;-71
2022/02/24 00:08:07;;;;;;;9.53;4.03;;;5.30;99.90;;;;;;5059666;28;20466;-70
2022/02/24 00:10:33;;;;;;;10.33;4.50;;;5.20;99.90;;;;;;5059190;28;20451;-70
2022/02/24 00:13:00;;;;;;;12.80;4.40;;;5.10;99.90;;;;;;5058845;28;20486;-71
2022/02/24 00:15:27;;;;;;;7.37;4.37;;;5.10;99.90;;;;;;5059767;28;20473;-71
2022/02/24 00:17:55;;;;;;;7.13;4.50;;;5.00;99.90;;;;;;5059287;28;20455;-72
2022/02/24 00:20:22;;;;;;;8.30;4.53;;;5.00;99.90;;;;;;5058649;28;20830;-71
2022/02/24 00:22:48;;;;;;;6.97;4.20;;;4.90;99.90;;;;;;5057221;28;20470;-72
2022/02/24 00:25:15;;;;;;;6.20;4.30;;;4.90;99.90;;;;;;5058747;28;20458;-70
2022/02/24 00:27:42;;;;;;;9.60;4.47;;;4.90;99.90;;;;;;5058135;28;20463;-71
2022/02/24 00:30:10;;;;;;;6.30;4.10;;;4.90;99.90;;;;;;5058142;28;20486;-70
2022/02/24 00:32:37;;;;;;;5.33;4.57;;;4.80;99.90;;;;;;5058637;28;20541;-70
2022/02/24 00:35:06;;;;;;;9.83;4.60;;;4.80;99.90;;;;;;5059240;28;20451;-70
2022/02/24 00:37:33;;;;;;;8.63;4.50;;;4.70;99.90;;;;;;5059860;28;20464;-70
2022/02/24 00:40:00;;;;;;;10.67;4.37;;;4.70;99.90;;;;;;5058596;28;20483;-71
2022/02/24 00:42:27;;;;;;;10.00;4.00;;;4.70;99.90;;;;;;5059066;28;20439;-71
2022/02/24 00:44:53;;;;;;;7.80;4.20;;;4.70;99.90;;;;;;5058552;28;20459;-71
2022/02/24 00:47:20;;;;;;;9.87;4.57;;;4.70;99.90;;;;;;5058674;28;20474;-70
2022/02/24 00:49:47;;;;;;;7.80;4.60;;;4.60;99.90;;;;;;5058674;28;20919;-70
2022/02/24 00:52:15;;;;;;;12.90;4.27;;;4.60;99.90;;;;;;5058819;28;20919;-71
2022/02/24 00:54:44;;;;;;;9.93;3.80;;;4.60;99.90;;;;;;5058308;28;20483;-71
2022/02/24 00:57:13;;;;;;;4.57;3.97;;;4.60;99.90;;;;;;5058219;28;20786;-71
2022/02/24 00:59:40;;;;;;;9.20;4.73;;;4.50;99.90;;;;;;5058141;28;20814;-71
2022/02/24 01:02:07;;;;;;;7.83;4.40;;;4.50;99.90;;;;;;5058546;28;20842;-71
2022/02/24 01:04:34;;;;;;;9.40;5.30;;;4.50;99.90;;;;;;5058852;28;20455;-71
2022/02/24 01:07:01;;;;;;;5.90;3.90;;;4.50;99.90;;;;;;5058930;28;20470;-71
2022/02/24 01:09:29;;;;;;;6.93;4.70;;;4.40;99.90;;;;;;5059833;28;20470;-71
2022/02/24 01:11:55;;;;;;;8.40;3.60;;;4.40;99.90;;;;;;5058992;28;20482;-71
2022/02/24 01:14:22;;;;;;;11.20;4.20;;;4.30;99.90;;;;;;5058906;28;20558;-71
2022/02/24 01:16:49;;;;;;;8.03;4.60;;;4.30;99.90;;;;;;5059380;28;20469;-71
2022/02/24 01:19:16;;;;;;;9.80;4.30;;;4.30;99.90;;;;;;5061736;28;20462;-71
2022/02/24 01:21:42;;;;;;;9.23;3.70;;;4.20;99.90;;;;;;5063303;28;20463;-71
2022/02/24 01:24:09;;;;;;;8.90;4.20;;;4.20;99.90;;;;;;5063564;28;20455;-71
2022/02/24 01:26:38;;;;;;;5.13;4.07;;;4.20;99.90;;;;;;5062577;28;20451;-71
2022/02/24 01:29:05;;;;;;;11.03;5.03;;;4.10;99.90;;;;;;5062312;28;20546;-70
2022/02/24 01:31:31;;;;;;;10.23;5.07;;;4.10;99.90;;;;;;5062357;28;20467;-71
2022/02/24 01:33:58;;;;;;;6.50;4.50;;;4.10;99.90;;;;;;5061942;28;20483;-73
2022/02/24 01:36:25;;;;;;;9.10;4.57;;;4.10;99.90;;;;;;5062294;28;20462;-72
2022/02/24 01:38:52;;;;;;;9.53;4.30;;;4.10;99.90;;;;;;5062287;28;20459;-73
2022/02/24 01:41:18;;;;;;;6.40;3.60;;;4.10;99.90;;;;;;5062342;28;20494;-72
2022/02/24 01:43:47;;;;;;;12.23;4.60;;;4.10;99.90;;;;;;5063627;28;20455;-71
2022/02/24 01:46:15;;;;;;;11.67;5.40;;;4.10;99.90;;;;;;5063639;28;20447;-72
2022/02/24 01:48:41;;;;;;;7.03;4.50;;;4.10;99.90;;;;;;5063865;28;20451;-71
2022/02/24 01:51:09;;;;;;;9.57;4.50;;;4.10;99.90;;;;;;5062156;28;20451;-71
2022/02/24 01:53:36;;;;;;;9.93;4.93;;;4.10;99.90;;;;;;5061903;28;20479;-72
2022/02/24 01:56:04;;;;;;;8.27;4.20;;;4.10;99.90;;;;;;5062485;28;20524;-72
2022/02/24 01:58:31;;;;;;;13.93;4.80;;;4.10;99.90;;;;;;5062396;28;20550;-74
2022/02/24 02:00:59;;;;;;;11.00;5.40;;;4.10;99.90;;;;;;5062429;28;20794;-72
2022/02/24 02:03:26;;;;;;;11.97;3.47;;;4.00;99.90;;;;;;5062990;28;20454;-72
2022/02/24 02:05:53;;;;;;;6.10;4.40;;;4.00;99.90;;;;;;5063694;28;20756;-72
2022/02/24 02:08:20;;;;;;;7.70;4.50;;;3.90;99.90;;;;;;5063788;28;20456;-72
2022/02/24 02:10:46;;;;;;;7.43;4.33;;;3.90;99.90;;;;;;5064181;28;20455;-70
2022/02/24 02:13:13;;;;;;;8.33;4.30;;;3.80;99.90;;;;;;5064897;28;20459;-72
2022/02/24 02:15:40;;;;;;;6.60;4.63;;;3.80;99.90;;;;;;5065026;28;20512;-72
2022/02/24 02:18:08;;;;;;;11.50;4.50;;;3.80;99.90;;;;;;5063734;28;20462;-71
2022/02/24 02:20:39;;;;;;;12.80;4.50;;;3.80;99.90;;;;;;5063874;28;20521;-74
2022/02/24 02:23:05;;;;;;;11.33;4.37;;;3.80;99.90;;;;;;5061651;28;20467;-75
2022/02/24 02:25:32;;;;;;;8.73;3.80;;;3.80;99.90;;;;;;5061619;28;20455;-74
2022/02/24 02:28:00;;;;;;;6.93;4.07;;;3.80;99.90;;;;;;5061845;28;20904;-70
2022/02/24 02:30:26;;;;;;;6.50;4.00;;;3.80;99.90;;;;;;5061304;28;20542;-74
2022/02/24 02:32:55;;;;;;;5.50;3.63;;;3.80;99.90;;;;;;5061060;28;20489;-72
2022/02/24 02:35:22;;;;;;;9.80;3.90;;;3.80;99.90;;;;;;5061923;28;20510;-74
2022/02/24 02:37:51;;;;;;;11.47;4.43;;;3.80;99.90;;;;;;5061235;28;20455;-73
2022/02/24 02:40:18;;;;;;;7.70;4.00;;;3.80;99.90;;;;;;5061405;28;20544;-74
2022/02/24 02:42:45;;;;;;;7.30;4.00;;;3.80;99.90;;;;;;5062015;28;20450;-73
2022/02/24 02:45:12;;;;;;;9.00;3.90;;;3.80;99.90;;;;;;5061228;28;20451;-72
2022/02/24 02:47:38;;;;;;;6.77;4.00;;;3.80;99.90;;;;;;5061225;28;20463;-74
2022/02/24 02:50:06;;;;;;;8.50;4.30;;;3.80;99.90;;;;;;5060887;28;20771;-73
2022/02/24 02:52:33;;;;;;;11.20;4.10;;;3.80;99.90;;;;;;5061431;28;20459;-72
2022/02/24 02:55:05;;;;;;;8.23;4.10;;;3.80;99.90;;;;;;5061140;28;20960;-73
2022/02/24 02:57:32;;;;;;;7.30;4.60;;;3.80;99.90;;;;;;5060763;28;20546;-71
2022/02/24 02:59:59;;;;;;;8.90;4.03;;;3.80;99.90;;;;;;5061204;28;20482;-72
2022/02/24 03:02:26;;;;;;;5.10;3.57;;;3.80;99.90;;;;;;5060972;28;20448;-71
2022/02/24 03:04:54;;;;;;;7.57;4.43;;;3.80;99.90;;;;;;5060510;28;20930;-71
2022/02/24 03:07:21;;;;;;;6.73;3.60;;;3.80;99.90;;;;;;5061220;28;20473;-70
2022/02/24 03:09:48;;;;;;;8.00;3.63;;;3.80;99.90;;;;;;5060346;28;20473;-72
2022/02/24 03:12:19;;;;;;;7.30;4.00;;;3.90;99.90;;;;;;5061126;28;20520;-70
2022/02/24 03:14:46;;;;;;;11.33;4.03;;;3.90;99.90;;;;;;5061335;28;20908;-71
2022/02/24 03:17:16;;;;;;;7.40;4.87;;;3.90;99.90;;;;;;5060620;28;20891;-71
2022/02/24 03:19:43;;;;;;;5.30;3.53;;;3.90;99.90;;;;;;5061179;28;20459;-71
2022/02/24 03:22:11;;;;;;;9.67;3.93;;;3.90;99.90;;;;;;5060057;28;20466;-73
2022/02/24 03:24:38;;;;;;;7.00;3.33;;;3.90;99.90;;;;;;5060497;28;20455;-71
2022/02/24 03:27:06;;;;;;;6.37;4.00;;;3.90;99.90;;;;;;5060836;28;20470;-72
2022/02/24 03:29:34;;;;;;;11.00;4.03;;;3.80;99.90;;;;;;5060708;28;20915;-72
2022/02/24 03:32:01;;;;;;;9.67;4.10;;;3.90;99.90;;;;;;5059907;28;20458;-72
2022/02/24 03:34:28;;;;;;;7.03;3.90;;;3.80;99.90;;;;;;5060620;28;20578;-72
2022/02/24 03:36:55;;;;;;;7.00;4.00;;;3.80;99.90;;;;;;5061003;28;20455;-71
2022/02/24 03:39:22;;;;;;;8.00;3.77;;;3.80;99.90;;;;;;5060527;28;20539;-72
2022/02/24 03:41:48;;;;;;;5.03;3.60;;;3.70;99.90;;;;;;5060485;28;20873;-72
2022/02/24 03:44:15;;;;;;;11.00;4.90;;;3.80;99.90;;;;;;5062474;28;20455;-72
2022/02/24 03:46:43;;;;;;;7.70;4.37;;;3.80;99.90;;;;;;5062645;28;20771;-71
2022/02/24 03:49:10;;;;;;;7.07;3.87;;;3.70;99.90;;;;;;5060415;28;20528;-72
2022/02/24 03:51:37;;;;;;;12.03;4.50;;;3.70;99.90;;;;;;5060370;28;20864;-71
2022/02/24 03:54:04;;;;;;;3.47;3.17;;;3.70;99.90;;;;;;5060532;28;20979;-72
2022/02/24 03:56:30;;;;;;;4.47;3.50;;;3.70;99.90;;;;;;5059898;28;20462;-72
2022/02/24 03:58:57;;;;;;;7.20;3.90;;;3.70;99.90;;;;;;5060184;28;20524;-72
2022/02/24 04:01:24;;;;;;;9.50;4.83;;;3.70;99.90;;;;;;5061445;28;20485;-71
2022/02/24 04:03:52;;;;;;;7.00;3.50;;;3.70;99.90;;;;;;5061503;28;20470;-73
2022/02/24 04:06:19;;;;;;;6.77;3.73;;;3.70;99.90;;;;;;5061623;28;20459;-72
2022/02/24 04:08:46;;;;;;;5.07;3.20;;;3.70;99.90;;;;;;5061058;28;20470;-72
2022/02/24 04:11:13;;;;;;;9.43;4.27;;;3.70;99.90;;;;;;5061870;28;20558;-73
2022/02/24 04:13:40;;;;;;;6.80;3.37;;;3.70;99.90;;;;;;5061009;28;20462;-71
2022/02/24 04:16:07;;;;;;;5.20;3.40;;;3.70;99.90;;;;;;5060727;28;20482;-73
2022/02/24 04:18:33;;;;;;;8.53;3.60;;;3.80;99.90;;;;;;5060331;28;20799;-72
2022/02/24 04:21:01;;;;;;;6.70;4.27;;;3.80;99.90;;;;;;5060328;28;20455;-72
2022/02/24 04:23:28;;;;;;;4.97;3.63;;;3.80;99.90;;;;;;5058905;28;20772;-69
2022/02/24 04:25:55;;;;;;;14.03;3.50;;;3.80;99.90;;;;;;5055047;28;20455;-71
2022/02/24 04:28:21;;;;;;;5.83;3.17;;;3.70;99.90;;;;;;5055024;28;20856;-69
2022/02/24 04:30:48;;;;;;;7.63;3.30;;;3.70;99.90;;;;;;5055239;28;20463;-70
2022/02/24 04:33:15;;;;;;;7.47;3.23;;;3.70;99.90;;;;;;5054904;28;20789;-70
2022/02/24 04:35:42;;;;;;;4.20;2.90;;;3.80;99.90;;;;;;5054934;28;20806;-70
2022/02/24 04:38:10;;;;;;;6.33;3.60;;;3.80;99.90;;;;;;5054858;28;20789;-70
2022/02/24 04:40:36;;;;;;;7.70;3.30;;;3.80;99.90;;;;;;5054450;28;20566;-70
2022/02/24 04:43:03;;;;;;;5.13;3.50;;;3.80;99.90;;;;;;5054756;28;20500;-70
2022/02/24 04:45:31;;;;;;;9.73;4.17;;;3.80;99.90;;;;;;5054797;28;20451;-70
2022/02/24 04:47:57;;;;;;;4.37;2.83;;;3.80;99.90;;;;;;5055047;28;20534;-70
2022/02/24 04:50:24;;;;;;;4.83;2.90;;;3.80;99.90;;;;;;5055530;28;20454;-70
2022/02/24 04:52:51;;;;;;;5.30;3.20;;;3.80;99.90;;;;;;5056736;28;20463;-70
2022/02/24 04:55:19;;;;;;;9.40;3.23;;;3.80;99.90;;;;;;5060744;28;20846;-71
2022/02/24 04:57:48;;;;;;;4.50;3.07;;;3.90;99.90;;;;;;5060514;28;20454;-69
2022/02/24 05:00:15;;;;;;;5.83;3.67;;;3.90;99.90;;;;;;5060454;28;20458;-70
2022/02/24 05:02:42;;;;;;;6.93;3.00;;;3.90;99.90;;;;;;5060962;28;20458;-70
2022/02/24 05:05:09;;;;;;;8.93;4.03;;;3.90;99.90;;;;;;5060101;28;20455;-70
2022/02/24 05:07:36;;;;;;;5.47;3.60;;;3.90;99.90;;;;;;5060550;28;20458;-70
2022/02/24 05:10:03;;;;;;;6.50;3.57;;;4.00;99.90;;;;;;5061656;28;20466;-70
2022/02/24 05:12:31;;;;;;;10.00;4.10;;;4.00;99.90;;;;;;5062266;28;20466;-72
2022/02/24 05:14:58;;;;;;;6.13;3.10;;;3.90;99.90;;;;;;5059522;28;20479;-69
2022/02/24 05:17:25;;;;;;;6.90;3.33;;;3.90;99.90;;;;;;5058731;28;20491;-70
2022/02/24 05:19:52;;;;;;;5.53;3.57;;;3.90;99.90;;;;;;5058696;28;20463;-69
2022/02/24 05:22:19;;;;;;;7.50;3.63;;;3.90;99.90;;;;;;5058782;28;20455;-70
2022/02/24 05:24:46;;;;;;;6.53;3.50;;;3.90;99.90;;;;;;5058312;28;20455;-71
2022/02/24 05:27:12;;;;;;;8.30;3.77;;;3.90;99.90;;;;;;5058121;28;20451;-71
2022/02/24 05:29:40;;;;;;;7.87;3.67;;;3.90;99.90;;;;;;5058409;28;20486;-70
2022/02/24 05:32:07;;;;;;;7.77;3.43;;;4.00;99.90;;;;;;5058108;28;20558;-70
2022/02/24 05:34:34;;;;;;;7.20;3.40;;;4.00;99.90;;;;;;5058135;28;20798;-70
2022/02/24 05:37:01;;;;;;;7.03;3.97;;;4.00;99.90;;;;;;5057748;28;20911;-70
2022/02/24 05:39:28;;;;;;;4.97;3.80;;;3.90;99.90;;;;;;5057630;28;20935;-71
2022/02/24 05:41:55;;;;;;;6.30;3.60;;;4.00;99.90;;;;;;5057266;28;20515;-70
2022/02/24 05:44:21;;;;;;;6.67;3.30;;;4.00;99.90;;;;;;5057558;28;20520;-70
2022/02/24 05:46:49;;;;;;;8.73;3.80;;;4.00;99.90;;;;;;5057523;28;20466;-70
2022/02/24 05:49:16;;;;;;;6.73;3.30;;;4.00;99.90;;;;;;5057655;28;20805;-72
2022/02/24 05:51:43;;;;;;;6.30;3.27;;;4.00;99.90;;;;;;5057886;28;20459;-70
2022/02/24 05:54:10;;;;;;;5.47;3.87;;;4.00;99.90;;;;;;5057578;28;20537;-71
2022/02/24 05:56:37;;;;;;;6.60;3.77;;;4.00;99.90;;;;;;5057239;28;20475;-70
2022/02/24 05:59:05;;;;;;;8.40;3.80;;;4.00;99.90;;;;;;5057125;28;20470;-70
2022/02/24 06:01:31;;;;;;;12.60;3.60;;;4.10;99.90;;;;;;5057194;28;20459;-69
2022/02/24 06:04:00;;;;;;;5.73;3.30;;;4.10;99.90;;;;;;5056840;28;20558;-70
2022/02/24 06:06:27;;;;;;;9.10;4.63;;;4.10;99.90;;;;;;5057429;28;20459;-70
2022/02/24 06:08:53;;;;;;;9.93;3.40;;;4.10;99.90;;;;;;5057220;28;20459;-70
2022/02/24 06:11:20;;;;;;;9.07;3.60;;;4.20;99.90;;;;;;5057339;28;20465;-69
2022/02/24 06:13:47;;;;;;;5.70;3.10;;;4.20;99.90;;;;;;5057569;28;20464;-70
2022/02/24 06:16:14;;;;;;;8.70;3.77;;;4.20;99.90;;;;;;5057156;28;20483;-70
2022/02/24 06:18:41;;;;;;;7.37;3.70;;;4.20;99.90;;;;;;5057189;28;20463;-71
2022/02/24 06:21:09;;;;;;;6.40;4.00;;;4.10;99.90;;;;;;5056972;28;20458;-70
2022/02/24 06:23:36;;;;;;;10.30;3.33;;;4.20;99.90;;;;;;5057648;28;20573;-70
2022/02/24 06:26:03;;;;;;;8.27;4.37;;;4.30;99.90;;;;;;5057548;28;20455;-71
2022/02/24 06:28:30;;;;;;;9.53;3.63;;;4.20;99.90;;;;;;5057802;28;20459;-70
2022/02/24 06:30:57;;;;;;;4.73;3.43;;;4.30;99.90;;;;;;5057471;28;20462;-71
2022/02/24 06:33:23;;;;;;;6.10;3.60;;;4.30;99.90;;;;;;5056987;28;20458;-71
2022/02/24 06:35:50;;;;;;;7.27;3.60;;;4.30;99.90;;;;;;5056775;28;20475;-70
2022/02/24 06:38:18;;;;;;;10.30;4.10;;;4.40;99.90;;;;;;5056719;28;20554;-69
2022/02/24 06:40:45;;;;;;;6.67;4.00;;;4.30;99.90;;;;;;5056361;28;20475;-69
2022/02/24 06:43:12;;;;;;;7.20;4.07;;;4.30;99.90;;;;;;5056632;28;20459;-70
2022/02/24 06:45:39;;;;;;;7.70;3.43;;;4.30;99.90;;;;;;5056574;28;20501;-68
2022/02/24 06:48:06;;;;;;;6.87;4.13;;;4.40;99.90;;;;;;5057085;28;20459;-70
2022/02/24 06:50:33;;;;;;;5.70;3.80;;;4.30;99.90;;;;;;5056575;28;20482;-69
2022/02/24 06:53:00;;;;;;;5.43;3.60;;;4.30;99.90;;;;;;5056514;28;20478;-70
2022/02/24 06:55:28;;;;;;;8.70;3.70;;;4.30;99.90;;;;;;5056568;28;20483;-69
2022/02/24 06:57:55;;;;;;;14.07;4.07;;;4.30;99.90;;;;;;5056510;28;20557;-69
2022/02/24 07:00:23;;;;;;;13.03;5.27;;;4.30;99.90;;;;;;5056014;28;20463;-70
2022/02/24 07:02:51;;;;;;;10.50;4.03;;;4.40;99.90;;;;;;5056220;28;20466;-69
2022/02/24 07:05:18;;;;;;;9.30;3.83;;;4.40;99.90;;;;;;5056549;28;20455;-69
2022/02/24 07:07:45;;;;;;;8.70;4.27;;;4.40;99.90;;;;;;5057509;28;20467;-69
2022/02/24 07:10:14;;;;;;;8.40;3.93;;;4.40;99.90;;;;;;5057142;28;20459;-68
2022/02/24 07:12:44;;;;;;;8.50;4.30;;;4.40;99.90;;;;;;5056754;28;20470;-70
2022/02/24 07:15:12;;;;;;;5.47;4.17;;;4.40;99.90;;;;;;5055892;28;20490;-69
2022/02/24 07:17:43;;;;;;;6.07;3.50;;;4.40;99.90;;;;;;5055207;28;20570;-69
2022/02/24 07:20:11;;;;;;;5.40;4.10;;;4.40;99.90;;;;;;5056312;28;20908;-70
2022/02/24 07:22:38;;;;;;;9.00;3.93;;;4.50;99.90;;;;;;5056192;28;20455;-69
2022/02/24 07:25:06;;;;;;;7.30;3.63;;;4.50;99.90;;;;;;5055869;28;20459;-69
2022/02/24 07:27:33;;;;;;;5.80;3.63;;;4.50;99.90;;;;;;5056156;28;20463;-69
2022/02/24 07:30:04;;;;;;;8.07;4.00;;;4.50;99.90;;;;;;5056013;28;20763;-70
2022/02/24 07:32:31;;;;;;;8.07;3.70;;;4.50;99.90;;;;;;5056046;28;20439;-69
2022/02/24 07:34:57;;;;;;;13.20;4.20;;;4.50;99.90;;;;;;5055618;28;20471;-69
2022/02/24 07:37:24;;;;;;;7.17;3.63;;;4.60;99.90;;;;;;5056838;28;20466;-68
2022/02/24 07:39:51;;;;;;;5.17;3.60;;;4.60;99.90;;;;;;5056813;28;21026;-69
2022/02/24 07:42:18;;;;;;;8.30;3.70;;;4.60;99.90;;;;;;5056954;28;20759;-69
2022/02/24 07:44:45;;;;;;;5.97;3.50;;;4.70;99.90;;;;;;5056216;28;20462;-70
2022/02/24 07:47:13;;;;;;;5.40;4.07;;;4.70;99.90;;;;;;5056250;28;20455;-69
2022/02/24 07:49:41;;;;;;;9.37;4.00;;;4.80;99.90;;;;;;5056497;28;20779;-71
2022/02/24 07:52:08;;;;;;;7.47;4.00;;;4.80;99.90;;;;;;5055969;28;20466;-69
2022/02/24 07:54:35;;;;;;;6.27;3.30;;;4.90;99.90;;;;;;5055591;28;20524;-70
2022/02/24 07:57:03;;;;;;;8.70;3.87;;;5.00;99.90;;;;;;5055539;28;20475;-69
2022/02/24 07:59:29;;;;;;;11.90;3.70;;;5.10;99.90;;;;;;5055334;28;20544;-69
2022/02/24 08:01:56;;;;;;;5.37;3.30;;;5.10;99.90;;;;;;5055429;28;20463;-69
2022/02/24 08:04:24;;;;;;;7.20;3.33;;;5.20;99.90;;;;;;5055318;28;20776;-70
2022/02/24 08:06:51;;;;;;;6.20;2.87;;;5.20;99.90;;;;;;5055303;28;20767;-69
2022/02/24 08:09:18;;;;;;;4.57;3.27;;;5.30;99.90;;;;;;5055572;28;20482;-71
2022/02/24 08:12:38;;;;;;;5.43;2.80;;;5.30;99.90;;;;;;5055179;28;20470;-71
2022/02/24 08:14:35;;;;;;;5.10;3.37;;;5.40;99.90;;;;;;5054899;28;20564;-71
2022/02/24 08:17:02;;;;;;;4.60;3.07;;;5.50;99.90;;;;;;5055566;28;20478;-70
2022/02/24 08:19:30;;;;;;;6.73;3.13;;;5.50;99.90;;;;;;5055262;28;20465;-70
2022/02/24 08:21:57;;;;;;;6.03;2.87;;;5.60;99.90;;;;;;5054782;28;20463;-69
2022/02/24 08:24:24;;;;;;;6.90;3.40;;;5.60;99.90;;;;;;5055271;28;20455;-71
2022/02/24 08:26:51;;;;;;;5.10;3.30;;;5.60;99.90;;;;;;5055113;28;20463;-70
2022/02/24 08:29:18;;;;;;;7.77;3.00;;;5.70;99.90;;;;;;5054925;28;20455;-70
2022/02/24 08:31:45;;;;;;;5.67;3.70;;;5.70;99.90;;;;;;5055864;28;20856;-71
2022/02/24 08:34:13;;;;;;;7.10;3.70;;;5.80;99.90;;;;;;5057504;28;20463;-71
2022/02/24 08:36:41;;;;;;;6.77;3.20;;;5.90;99.90;;;;;;5056026;28;20518;-69
2022/02/24 08:39:08;;;;;;;9.63;3.30;;;5.90;99.90;;;;;;5054976;28;20801;-69
2022/02/24 08:41:38;;;;;;;4.23;3.00;;;6.00;99.90;;;;;;5054547;28;20544;-69
2022/02/24 08:44:05;;;;;;;4.23;2.83;;;6.10;99.90;;;;;;5054381;28;20459;-69
2022/02/24 08:46:32;;;;;;;4.07;3.00;;;6.10;99.90;;;;;;5054662;28;20451;-70
2022/02/24 08:48:58;;;;;;;5.87;2.77;;;6.10;99.90;;;;;;5054734;28;20459;-69
2022/02/24 08:51:25;;;;;;;7.07;2.87;;;6.10;99.90;;;;;;5054423;28;20455;-70
2022/02/24 08:53:53;;;;;;;3.70;2.70;;;6.10;99.90;;;;;;5054784;28;20781;-70
2022/02/24 08:56:20;;;;;;;21.17;3.00;;;6.20;99.90;;;;;;5054573;28;20514;-70
2022/02/24 08:58:47;;;;;;;4.97;2.93;;;6.20;99.90;;;;;;5055048;28;20455;-68
2022/02/24 09:01:13;;;;;;;5.17;2.87;;;6.40;99.90;;;;;;5054484;28;20473;-69
2022/02/24 09:03:40;;;;;;;5.47;2.90;;;6.50;99.90;;;;;;5055214;28;20739;-70
2022/02/24 09:06:11;;;;;;;6.07;3.10;;;6.60;99.90;;;;;;5054624;28;20455;-69
2022/02/24 09:08:38;;;;;;;4.50;2.40;;;6.70;99.90;;;;;;5054880;28;20543;-70
2022/02/24 09:11:06;;;;;;;15.63;4.10;;;6.80;99.90;;;;;;5054437;28;20459;-70
2022/02/24 09:13:33;;;;;;;4.10;2.20;;;6.90;99.90;;;;;;5054669;28;20459;-69
2022/02/24 09:16:00;;;;;;;5.63;2.80;;;7.00;99.90;;;;;;5054629;28;20517;-71
2022/02/24 09:18:27;;;;;;;9.43;2.93;;;7.00;99.90;;;;;;5054727;28;20550;-70
2022/02/24 09:20:53;;;;;;;5.27;2.83;;;7.00;99.90;;;;;;5055169;28;20470;-69
2022/02/24 09:23:20;;;;;;;3.93;2.73;;;7.10;99.90;;;;;;5055020;28;20481;-71
2022/02/24 09:25:47;;;;;;;5.30;3.40;;;7.20;99.90;;;;;;5054109;28;20455;-70
2022/02/24 09:28:16;;;;;;;4.07;2.43;;;7.30;99.90;;;;;;5054759;28;20455;-70
2022/02/24 09:30:43;;;;;;;3.87;2.67;;;7.30;99.90;;;;;;5054195;28;20462;-72
2022/02/24 09:33:10;;;;;;;6.30;3.60;;;7.30;99.90;;;;;;5054413;28;20481;-70
2022/02/24 09:35:37;;;;;;;5.80;2.70;;;7.40;99.90;;;;;;5055278;28;20520;-69
2022/02/24 09:38:04;;;;;;;6.23;2.53;;;7.50;99.90;;;;;;5055176;28;20922;-69
2022/02/24 09:40:34;;;;;;;4.27;3.10;;;7.50;99.90;;;;;;5057645;28;20491;-70
2022/02/24 09:43:03;;;;;;;7.90;3.07;;;7.50;99.90;;;;;;5057830;28;20555;-68
2022/02/24 09:45:31;;;;;;;7.90;2.80;;;7.60;99.90;;;;;;5057568;28;20447;-69
2022/02/24 09:48:02;;;;;;;5.30;2.50;;;7.70;99.90;;;;;;5057457;28;20915;-70
2022/02/24 09:50:30;;;;;;;5.27;2.97;;;7.80;99.90;;;;;;5057664;28;20766;-70
2022/02/24 09:52:57;;;;;;;8.87;2.93;;;7.90;99.90;;;;;;5057260;28;20797;-70
2022/02/24 09:55:24;;;;;;;4.80;3.13;;;8.00;99.90;;;;;;5057659;28;20467;-70
2022/02/24 09:57:51;;;;;;;3.60;2.43;;;8.10;99.90;;;;;;5058343;28;20502;-69
2022/02/24 10:00:18;;;;;;;7.80;2.80;;;8.20;99.90;;;;;;5057820;28;20455;-69
2022/02/24 10:02:46;;;;;;;8.17;2.80;;;8.20;99.90;;;;;;5057775;28;20547;-69
2022/02/24 10:05:14;;;;;;;7.90;3.13;;;8.30;99.90;;;;;;5058176;28;20817;-70
2022/02/24 10:07:44;;;;;;;4.20;3.03;;;8.30;99.90;;;;;;5057512;28;20455;-70
2022/02/24 10:10:24;;;;;;;7.53;2.90;;;8.40;99.90;;;;;;5057922;28;20459;-70
2022/02/24 10:13:07;;;;;;;5.57;3.27;;;8.50;99.90;;;;;;5057404;28;20459;-70
2022/02/24 10:15:37;;;;;;;4.33;3.00;;;8.60;99.90;;;;;;5057375;28;20454;-69
2022/02/24 10:18:14;;;;;;;5.83;4.07;;;8.60;99.90;;;;;;5056733;28;20940;-69
2022/02/24 10:20:44;;;;;;;5.60;2.93;;;8.60;99.90;;;;;;5057380;28;20856;-69
2022/02/24 10:23:12;;;;;;;5.20;3.00;;;8.70;99.90;;;;;;5057794;28;20748;-68
2022/02/24 10:25:45;;;;;;;3.40;3.00;;;8.70;99.90;;;;;;5057410;28;20532;-70
2022/02/24 10:28:30;;;;;;;7.70;2.80;;;8.80;99.90;;;;;;5057359;28;20772;-69
2022/02/24 10:30:57;;;;;;;4.90;2.80;;;8.80;99.90;;;;;;5057470;28;20924;-70
2022/02/24 10:33:30;;;;;;;5.70;3.10;;;8.80;99.90;;;;;;5057556;28;20476;-70
2022/02/24 10:36:08;;;;;;;4.93;3.00;;;8.80;99.90;;;;;;5056791;28;20455;-69
2022/02/24 10:38:35;;;;;;;4.33;2.87;;;8.80;99.90;;;;;;5057219;28;20470;-70
2022/02/24 10:41:02;;;;;;;8.77;3.30;;;8.80;99.90;;;;;;5056503;28;20502;-69
2022/02/24 10:43:32;;;;;;;3.40;2.80;;;8.90;99.90;;;;;;5056672;28;20526;-69
2022/02/24 10:46:01;;;;;;;5.00;3.30;;;8.90;99.90;;;;;;5056933;28;20486;-69
2022/02/24 10:48:30;;;;;;;5.13;2.90;;;8.90;99.90;;;;;;5056341;28;20788;-70
2022/02/24 10:50:58;;;;;;;5.60;3.43;;;9.00;99.90;;;;;;5056776;28;20911;-70
2022/02/24 10:53:28;;;;;;;8.53;3.43;;;9.10;99.90;;;;;;5056883;28;20459;-71
2022/02/24 10:56:00;;;;;;;5.73;3.07;;;9.20;99.90;;;;;;5056356;28;20470;-70
2022/02/24 10:58:29;;;;;;;7.23;3.00;;;9.30;99.90;;;;;;5056897;28;20466;-70
2022/02/24 11:01:13;;;;;;;6.80;3.47;;;9.50;99.90;;;;;;5056986;28;20455;-69
2022/02/24 11:03:44;;;;;;;4.93;3.40;;;9.60;99.90;;;;;;5056292;28;20944;-69
2022/02/24 11:06:12;;;;;;;11.90;3.60;;;9.50;99.90;;;;;;5056313;28;20439;-69
2022/02/24 11:08:41;;;;;;;3.90;3.07;;;9.50;99.90;;;;;;5056205;28;20459;-70
2022/02/24 11:11:08;;;;;;;3.90;2.87;;;9.50;99.90;;;;;;5056075;28;20455;-70
2022/02/24 11:13:36;;;;;;;4.80;2.87;;;9.50;99.90;;;;;;5056871;28;20470;-70
2022/02/24 11:16:04;;;;;;;5.50;3.20;;;9.40;99.90;;;;;;5055618;28;20531;-70
2022/02/24 11:18:34;;;;;;;4.20;3.03;;;9.20;99.90;;;;;;5055748;28;20927;-70
2022/02/24 11:21:02;;;;;;;5.50;3.33;;;9.20;99.90;;;;;;5056046;28;20459;-70
2022/02/24 11:23:29;;;;;;;5.30;3.20;;;9.10;99.90;;;;;;5055948;28;20459;-69
2022/02/24 11:26:04;;;;;;;11.20;3.80;;;9.20;99.90;;;;;;5056414;28;20459;-71
2022/02/24 11:28:40;;;;;;;11.23;4.00;;;9.20;99.90;;;;;;5056129;28;20453;-70
2022/02/24 11:31:16;;;;;;;6.77;3.23;;;9.20;99.90;;;;;;5055942;28;20475;-70
2022/02/24 11:33:43;;;;;;;9.37;3.53;;;9.20;99.90;;;;;;5057153;28;20443;-70
2022/02/24 11:36:16;;;;;;;6.17;2.97;;;9.20;99.90;;;;;;5056158;28;20463;-73
2022/02/24 11:39:08;;;;;;;8.10;3.20;;;9.20;99.90;;;;;;5056139;28;20482;-73
2022/02/24 11:41:35;;;;;;;12.40;3.57;;;9.20;99.90;;;;;;5055905;28;20483;-71
2022/02/24 11:44:01;;;;;;;6.50;3.70;;;9.20;99.90;;;;;;5056336;28;20455;-71
2022/02/24 11:46:28;;;;;;;6.73;3.10;;;9.30;99.90;;;;;;5056151;28;20455;-72
2022/02/24 11:48:55;;;;;;;4.40;3.20;;;9.30;99.90;;;;;;5056365;28;20924;-72
2022/02/24 11:51:23;;;;;;;5.70;4.00;;;9.30;99.90;;;;;;5062178;28;20459;-72
2022/02/24 11:53:52;;;;;;;4.90;3.40;;;9.40;99.90;;;;;;5061967;28;20559;-72
2022/02/24 11:56:19;;;;;;;5.00;2.87;;;9.40;99.90;;;;;;5060335;28;20470;-73
2022/02/24 11:59:04;;;;;;;9.83;3.70;;;9.40;99.90;;;;;;5056364;28;20499;-71
2022/02/24 12:01:38;;;;;;;5.40;3.13;;;9.40;99.90;;;;;;5056291;28;20446;-72
2022/02/24 12:04:07;;;;;;;4.77;3.00;;;9.40;99.90;;;;;;5056720;28;20439;-73
2022/02/24 12:06:42;;;;;;;6.30;3.40;;;9.50;99.90;;;;;;5058757;28;20787;-72
2022/02/24 12:09:10;;;;;;;12.17;3.37;;;9.40;99.90;;;;;;5059809;28;20442;-72
2022/02/24 12:11:40;;;;;;;3.80;3.17;;;9.40;99.90;;;;;;5058493;28;20451;-72
2022/02/24 12:14:44;;;;;;;6.37;3.00;;;9.40;99.90;;;;;;5056703;28;20756;-72
2022/02/24 12:17:13;;;;;;;4.30;3.20;;;9.40;99.90;;;;;;5057062;28;20494;-74
2022/02/24 12:19:43;;;;;;;6.83;2.93;;;9.40;99.90;;;;;;5058713;28;20871;-72
2022/02/24 12:22:15;;;;;;;4.80;3.63;;;9.50;99.90;;;;;;5059008;28;20765;-72
2022/02/24 12:24:44;;;;;;;4.63;3.27;;;9.50;99.90;;;;;;5059767;28;20435;-72
2022/02/24 12:27:28;;;;;;;5.07;3.50;;;9.60;99.90;;;;;;5058170;28;20548;-72
2022/02/24 12:29:58;;;;;;;6.50;3.40;;;9.50;99.90;;;;;;5056906;28;20447;-72
2022/02/24 12:32:38;;;;;;;10.33;3.60;;;9.50;99.90;;;;;;5057131;28;20607;-72
2022/02/24 12:35:05;;;;;;;9.70;3.20;;;9.50;99.90;;;;;;5060524;28;20443;-72
2022/02/24 12:37:34;;;;;;;6.30;3.67;;;9.50;99.90;;;;;;5064069;28;20517;-72
2022/02/24 12:40:01;;;;;;;7.63;3.10;;;9.60;99.90;;;;;;5056471;28;20774;-72
2022/02/24 12:42:29;;;;;;;5.50;3.83;;;9.60;99.90;;;;;;5055266;28;20868;-72
2022/02/24 12:44:56;;;;;;;4.67;2.93;;;9.50;99.90;;;;;;5054524;28;20920;-72
2022/02/24 12:47:23;;;;;;;8.20;3.50;;;9.50;99.90;;;;;;5055151;28;20451;-72
2022/02/24 12:49:52;;;;;;;5.47;2.90;;;9.50;99.90;;;;;;5055208;28;20458;-73
2022/02/24 12:52:20;;;;;;;6.70;3.13;;;9.60;99.90;;;;;;5055038;28;20459;-72
2022/02/24 12:54:48;;;;;;;7.50;3.03;;;9.60;99.90;;;;;;5054513;28;20466;-71
2022/02/24 12:57:15;;;;;;;5.87;3.10;;;9.60;99.90;;;;;;5054898;28;20486;-73
2022/02/24 12:59:42;;;;;;;5.83;3.20;;;9.70;99.90;;;;;;5054647;28;20469;-73